sensor_id;sensor_type;location;lat;lon;timestamp;pressure;altitude;pressure_sealevel;temperature;humidity
37238;BME280;23129;49.662;8.448;2023-01-25T00:01:55;102640.88;;;2.95;100.00
37238;BME280;23129;49.662;8.448;2023-01-25T00:04:24;102635.66;;;2.94;100.00
37238;BME280;23129;49.662;8.448;2023-01-25T00:06:52;102621.75;;;2.92;100.00
37238;BME280;23129;49.662;8.448;2023-01-25T00:09:21;102618.28;;;2.91;100.00
37238;BME280;23129;49.662;8.448;2023-01-25T00:11:51;102625.22;;;2.92;100.00
37238;BME280;23129;49.662;8.448;2023-01-25T00:14:22;102617.44;;;2.92;100.00
37238;BME280;23129;49.662;8.448;2023-01-25T00:16:51;102622.69;;;2.94;100.00
37238;BME280;23129;49.662;8.448;2023-01-25T00:19:21;102628.75;;;2.94;100.00
37238;BME280;23129;49.662;8.448;2023-01-25T00:21:50;102616.69;;;2.95;100.00
37238;BME280;23129;49.662;8.448;2023-01-25T00:24:18;102626.22;;;2.96;100.00
37238;BME280;23129;49.662;8.448;2023-01-25T00:26:48;102615.84;;;2.96;100.00
37238;BME280;23129;49.662;8.448;2023-01-25T00:29:17;102628.00;;;2.97;100.00
37238;BME280;23129;49.662;8.448;2023-01-25T00:31:57;102621.03;;;2.96;100.00
37238;BME280;23129;49.662;8.448;2023-01-25T00:34:45;102617.50;;;2.94;100.00
37238;BME280;23129;49.662;8.448;2023-01-25T00:37:23;102615.84;;;2.96;100.00
37238;BME280;23129;49.662;8.448;2023-01-25T00:39:52;102615.03;;;2.97;100.00
37238;BME280;23129;49.662;8.448;2023-01-25T00:42:21;102608.13;;;2.97;100.00
37238;BME280;23129;49.662;8.448;2023-01-25T00:44:49;102610.78;;;2.99;100.00
37238;BME280;23129;49.662;8.448;2023-01-25T00:47:19;102605.59;;;2.99;100.00
37238;BME280;23129;49.662;8.448;2023-01-25T00:49:49;102607.38;;;3.00;100.00
37238;BME280;23129;49.662;8.448;2023-01-25T00:52:17;102609.13;;;3.01;100.00
37238;BME280;23129;49.662;8.448;2023-01-25T00:54:47;102605.66;;;3.01;100.00
37238;BME280;23129;49.662;8.448;2023-01-25T00:57:15;102602.19;;;3.00;100.00
37238;BME280;23129;49.662;8.448;2023-01-25T00:59:43;102606.53;;;3.01;100.00
37238;BME280;23129;49.662;8.448;2023-01-25T01:02:14;102603.94;;;3.01;100.00
37238;BME280;23129;49.662;8.448;2023-01-25T01:04:42;102598.75;;;3.01;100.00
37238;BME280;23129;49.662;8.448;2023-01-25T01:07:14;102602.19;;;3.00;100.00
37238;BME280;23129;49.662;8.448;2023-01-25T01:09:42;102593.47;;;2.98;100.00
37238;BME280;23129;49.662;8.448;2023-01-25T01:12:11;102603.00;;;2.99;100.00
37238;BME280;23129;49.662;8.448;2023-01-25T01:14:40;102602.19;;;3.00;100.00
37238;BME280;23129;49.662;8.448;2023-01-25T01:17:09;102589.22;;;3.00;100.00
37238;BME280;23129;49.662;8.448;2023-01-25T01:19:39;102591.81;;;3.00;100.00
37238;BME280;23129;49.662;8.448;2023-01-25T01:22:07;102584.84;;;2.99;100.00
37238;BME280;23129;49.662;8.448;2023-01-25T01:24:37;102590.94;;;3.00;100.00
37238;BME280;23129;49.662;8.448;2023-01-25T01:27:07;102590.94;;;3.00;100.00
37238;BME280;23129;49.662;8.448;2023-01-25T01:29:36;102595.22;;;2.99;100.00
37238;BME280;23129;49.662;8.448;2023-01-25T01:32:05;102595.22;;;2.99;100.00
37238;BME280;23129;49.662;8.448;2023-01-25T01:34:34;102598.75;;;3.01;100.00
37238;BME280;23129;49.662;8.448;2023-01-25T01:37:02;102591.81;;;3.00;100.00
37238;BME280;23129;49.662;8.448;2023-01-25T01:39:31;102586.53;;;2.97;100.00
37238;BME280;23129;49.662;8.448;2023-01-25T01:42:00;102589.91;;;2.96;100.00
37238;BME280;23129;49.662;8.448;2023-01-25T01:44:46;102584.63;;;2.93;100.00
37238;BME280;23129;49.662;8.448;2023-01-25T01:47:19;102587.28;;;2.94;100.00
37238;BME280;23129;49.662;8.448;2023-01-25T01:49:56;102576.03;;;2.94;100.00
37238;BME280;23129;49.662;8.448;2023-01-25T01:52:32;102579.53;;;2.96;100.00
37238;BME280;23129;49.662;8.448;2023-01-25T01:55:06;102579.53;;;2.96;100.00
37238;BME280;23129;49.662;8.448;2023-01-25T01:57:42;102574.38;;;2.96;100.00
37238;BME280;23129;49.662;8.448;2023-01-25T02:00:15;102573.56;;;2.97;100.00
37238;BME280;23129;49.662;8.448;2023-01-25T02:02:45;102577.97;;;3.00;100.00
37238;BME280;23129;49.662;8.448;2023-01-25T02:05:19;102576.25;;;3.00;100.00
37238;BME280;23129;49.662;8.448;2023-01-25T02:07:51;102580.56;;;3.00;100.00
37238;BME280;23129;49.662;8.448;2023-01-25T02:10:25;102572.72;;;2.98;100.00
37238;BME280;23129;49.662;8.448;2023-01-25T02:12:57;102576.25;;;3.00;100.00
37238;BME280;23129;49.662;8.448;2023-01-25T02:15:30;102572.84;;;3.01;100.00
37238;BME280;23129;49.662;8.448;2023-01-25T02:18:01;102572.84;;;3.01;100.00
37238;BME280;23129;49.662;8.448;2023-01-25T02:20:35;102583.22;;;3.01;100.00
37238;BME280;23129;49.662;8.448;2023-01-25T02:23:13;102580.69;;;3.03;100.00
37238;BME280;23129;49.662;8.448;2023-01-25T02:25:45;102585.00;;;3.02;100.00
37238;BME280;23129;49.662;8.448;2023-01-25T02:28:17;102576.25;;;3.00;100.00
37238;BME280;23129;49.662;8.448;2023-01-25T02:30:48;102577.03;;;2.97;100.00
37238;BME280;23129;49.662;8.448;2023-01-25T02:33:17;102571.84;;;2.97;100.00
37238;BME280;23129;49.662;8.448;2023-01-25T02:35:48;102573.56;;;2.97;100.00
37238;BME280;23129;49.662;8.448;2023-01-25T02:38:18;102570.97;;;2.97;100.00
37238;BME280;23129;49.662;8.448;2023-01-25T02:40:55;102567.44;;;2.95;100.00
37238;BME280;23129;49.662;8.448;2023-01-25T02:43:30;102564.84;;;2.95;100.00
37238;BME280;23129;49.662;8.448;2023-01-25T02:46:09;102563.13;;;2.95;100.00
37238;BME280;23129;49.662;8.448;2023-01-25T02:48:43;102565.72;;;2.95;100.00
37238;BME280;23129;49.662;8.448;2023-01-25T02:51:12;102564.00;;;2.96;100.00
37238;BME280;23129;49.662;8.448;2023-01-25T02:53:40;102557.94;;;2.95;100.00
37238;BME280;23129;49.662;8.448;2023-01-25T02:56:10;102564.00;;;2.96;100.00
37238;BME280;23129;49.662;8.448;2023-01-25T02:58:39;102561.41;;;2.96;100.00
37238;BME280;23129;49.662;8.448;2023-01-25T03:01:08;102559.72;;;2.96;100.00
37238;BME280;23129;49.662;8.448;2023-01-25T03:03:37;102561.41;;;2.96;100.00
37238;BME280;23129;49.662;8.448;2023-01-25T03:06:06;102559.72;;;2.96;100.00
37238;BME280;23129;49.662;8.448;2023-01-25T03:08:35;102558.00;;;2.97;100.00
37238;BME280;23129;49.662;8.448;2023-01-25T03:11:06;102548.44;;;2.96;100.00
37238;BME280;23129;49.662;8.448;2023-01-25T03:13:37;102553.63;;;2.96;100.00
37238;BME280;23129;49.662;8.448;2023-01-25T03:16:08;102552.75;;;2.95;100.00
37238;BME280;23129;49.662;8.448;2023-01-25T03:18:40;102544.97;;;2.95;100.00
37238;BME280;23129;49.662;8.448;2023-01-25T03:21:11;102543.25;;;2.96;100.00
37238;BME280;23129;49.662;8.448;2023-01-25T03:23:41;102541.50;;;2.95;100.00
37238;BME280;23129;49.662;8.448;2023-01-25T03:26:14;102541.50;;;2.95;100.00
37238;BME280;23129;49.662;8.448;2023-01-25T03:29:16;102541.50;;;2.95;100.00
37238;BME280;23129;49.662;8.448;2023-01-25T03:31:47;102541.50;;;2.95;100.00
37238;BME280;23129;49.662;8.448;2023-01-25T03:34:16;102540.63;;;2.94;100.00
37238;BME280;23129;49.662;8.448;2023-01-25T03:36:44;102538.88;;;2.93;100.00
37238;BME280;23129;49.662;8.448;2023-01-25T03:39:14;102539.75;;;2.94;100.00
37238;BME280;23129;49.662;8.448;2023-01-25T03:41:43;102538.88;;;2.93;100.00
37238;BME280;23129;49.662;8.448;2023-01-25T03:44:13;102539.63;;;2.91;100.00
37238;BME280;23129;49.662;8.448;2023-01-25T03:46:45;102531.78;;;2.89;100.00
37238;BME280;23129;49.662;8.448;2023-01-25T03:49:13;102530.91;;;2.89;100.00
37238;BME280;23129;49.662;8.448;2023-01-25T03:51:42;102542.91;;;2.87;100.00
37238;BME280;23129;49.662;8.448;2023-01-25T03:54:12;102539.41;;;2.85;100.00
37238;BME280;23129;49.662;8.448;2023-01-25T03:56:40;102542.81;;;2.84;100.00
37238;BME280;23129;49.662;8.448;2023-01-25T03:59:15;102537.50;;;2.81;100.00
37238;BME280;23129;49.662;8.448;2023-01-25T04:01:45;102535.75;;;2.80;100.00
37238;BME280;23129;49.662;8.448;2023-01-25T04:04:14;102531.41;;;2.79;100.00
37238;BME280;23129;49.662;8.448;2023-01-25T04:06:44;102536.50;;;2.77;100.00
37238;BME280;23129;49.662;8.448;2023-01-25T04:09:13;102533.88;;;2.76;100.00
37238;BME280;23129;49.662;8.448;2023-01-25T04:11:49;102530.34;;;2.73;100.00
37238;BME280;23129;49.662;8.448;2023-01-25T04:14:19;102531.97;;;2.71;100.00
37238;BME280;23129;49.662;8.448;2023-01-25T04:17:08;102534.53;;;2.70;100.00
37238;BME280;23129;49.662;8.448;2023-01-25T04:20:00;102525.81;;;2.68;100.00
37238;BME280;23129;49.662;8.448;2023-01-25T04:22:36;102517.97;;;2.66;100.00
37238;BME280;23129;49.662;8.448;2023-01-25T04:25:06;102531.75;;;2.65;100.00
37238;BME280;23129;49.662;8.448;2023-01-25T04:27:38;102530.00;;;2.64;100.00
37238;BME280;23129;49.662;8.448;2023-01-25T04:30:12;102526.44;;;2.62;100.00
37238;BME280;23129;49.662;8.448;2023-01-25T04:32:43;102524.69;;;2.61;100.00
37238;BME280;23129;49.662;8.448;2023-01-25T04:35:20;102521.16;;;2.59;100.00
37238;BME280;23129;49.662;8.448;2023-01-25T04:37:53;102522.78;;;2.57;100.00
37238;BME280;23129;49.662;8.448;2023-01-25T04:40:24;102518.50;;;2.58;100.00
37238;BME280;23129;49.662;8.448;2023-01-25T04:42:53;102514.97;;;2.56;100.00
37238;BME280;23129;49.662;8.448;2023-01-25T04:45:22;102528.81;;;2.56;100.00
37238;BME280;23129;49.662;8.448;2023-01-25T04:47:57;102519.28;;;2.55;100.00
37238;BME280;23129;49.662;8.448;2023-01-25T04:50:27;102519.28;;;2.55;100.00
37238;BME280;23129;49.662;8.448;2023-01-25T04:52:55;102522.75;;;2.56;100.00
37238;BME280;23129;49.662;8.448;2023-01-25T04:55:24;102519.28;;;2.55;100.00
37238;BME280;23129;49.662;8.448;2023-01-25T04:57:55;102514.97;;;2.56;100.00
37238;BME280;23129;49.662;8.448;2023-01-25T05:00:23;102514.09;;;2.55;100.00
37238;BME280;23129;49.662;8.448;2023-01-25T05:02:52;102514.09;;;2.55;100.00
37238;BME280;23129;49.662;8.448;2023-01-25T05:05:22;102508.91;;;2.55;100.00
37238;BME280;23129;49.662;8.448;2023-01-25T05:07:53;102510.56;;;2.53;100.00
37238;BME280;23129;49.662;8.448;2023-01-25T05:10:22;102510.56;;;2.53;100.00
37238;BME280;23129;49.662;8.448;2023-01-25T05:13:22;102507.91;;;2.51;100.00
37238;BME280;23129;49.662;8.448;2023-01-25T05:16:00;102511.31;;;2.50;100.00
37238;BME280;23129;49.662;8.448;2023-01-25T05:18:28;102494.91;;;2.50;100.00
37238;BME280;23129;49.662;8.448;2023-01-25T05:21:17;102487.97;;;2.49;100.00
37238;BME280;23129;49.662;8.448;2023-01-25T05:24:00;102490.47;;;2.47;100.00
37238;BME280;23129;49.662;8.448;2023-01-25T05:26:32;102487.00;;;2.47;100.00
37238;BME280;23129;49.662;8.448;2023-01-25T05:29:18;102477.47;;;2.46;100.00
37238;BME280;23129;49.662;8.448;2023-01-25T05:31:55;102468.88;;;2.47;100.00
37238;BME280;23129;49.662;8.448;2023-01-25T05:34:25;102463.69;;;2.47;100.00
37238;BME280;23129;49.662;8.448;2023-01-25T05:36:54;102462.06;;;2.49;100.00
37238;BME280;23129;49.662;8.448;2023-01-25T05:39:24;102460.28;;;2.48;100.00
37238;BME280;23129;49.662;8.448;2023-01-25T05:41:53;102468.13;;;2.49;100.00
37238;BME280;23129;49.662;8.448;2023-01-25T05:44:22;102462.94;;;2.49;100.00
37238;BME280;23129;49.662;8.448;2023-01-25T05:46:51;102456.88;;;2.49;100.00
37238;BME280;23129;49.662;8.448;2023-01-25T05:49:20;102463.81;;;2.50;100.00
37238;BME280;23129;49.662;8.448;2023-01-25T05:51:49;102463.81;;;2.50;100.00
37238;BME280;23129;49.662;8.448;2023-01-25T05:54:20;102466.41;;;2.50;100.00
37238;BME280;23129;49.662;8.448;2023-01-25T05:56:57;102459.50;;;2.50;100.00
37238;BME280;23129;49.662;8.448;2023-01-25T05:59:26;102462.16;;;2.52;100.00
37238;BME280;23129;49.662;8.448;2023-01-25T06:01:56;102460.47;;;2.53;100.00
37238;BME280;23129;49.662;8.448;2023-01-25T06:04:24;102455.28;;;2.53;100.00
37238;BME280;23129;49.662;8.448;2023-01-25T06:06:53;102455.28;;;2.53;100.00
37238;BME280;23129;49.662;8.448;2023-01-25T06:09:23;102463.06;;;2.53;100.00
37238;BME280;23129;49.662;8.448;2023-01-25T06:11:52;102458.75;;;2.53;100.00
37238;BME280;23129;49.662;8.448;2023-01-25T06:14:21;102463.81;;;2.50;100.00
37238;BME280;23129;49.662;8.448;2023-01-25T06:16:51;102462.06;;;2.49;100.00
37238;BME280;23129;49.662;8.448;2023-01-25T06:19:30;102456.88;;;2.49;100.00
37238;BME280;23129;49.662;8.448;2023-01-25T06:22:16;102459.41;;;2.47;100.00
37238;BME280;23129;49.662;8.448;2023-01-25T06:24:45;102459.41;;;2.47;100.00
37238;BME280;23129;49.662;8.448;2023-01-25T06:27:14;102470.63;;;2.48;100.00
37238;BME280;23129;49.662;8.448;2023-01-25T06:29:42;102468.00;;;2.46;100.00
37238;BME280;23129;49.662;8.448;2023-01-25T06:32:11;102460.16;;;2.45;100.00
37238;BME280;23129;49.662;8.448;2023-01-25T06:34:40;102465.34;;;2.45;100.00
37238;BME280;23129;49.662;8.448;2023-01-25T06:37:15;102471.22;;;2.41;100.00
37238;BME280;23129;49.662;8.448;2023-01-25T06:39:45;102477.25;;;2.40;100.00
37238;BME280;23129;49.662;8.448;2023-01-25T06:42:13;102474.53;;;2.37;100.00
37238;BME280;23129;49.662;8.448;2023-01-25T06:44:42;102475.34;;;2.36;100.00
37238;BME280;23129;49.662;8.448;2023-01-25T06:47:10;102474.44;;;2.34;100.00
37238;BME280;23129;49.662;8.448;2023-01-25T06:49:39;102464.88;;;2.33;100.00
37238;BME280;23129;49.662;8.448;2023-01-25T06:52:07;102468.41;;;2.35;100.00
37238;BME280;23129;49.662;8.448;2023-01-25T06:54:35;102466.69;;;2.35;100.00
37238;BME280;23129;49.662;8.448;2023-01-25T06:57:05;102466.78;;;2.37;100.00
37238;BME280;23129;49.662;8.448;2023-01-25T06:59:36;102463.34;;;2.38;100.00
37238;BME280;23129;49.662;8.448;2023-01-25T07:02:05;102459.91;;;2.39;100.00
37238;BME280;23129;49.662;8.448;2023-01-25T07:04:34;102463.34;;;2.38;100.00
37238;BME280;23129;49.662;8.448;2023-01-25T07:07:02;102459.03;;;2.38;100.00
37238;BME280;23129;49.662;8.448;2023-01-25T07:09:31;102463.34;;;2.38;100.00
37238;BME280;23129;49.662;8.448;2023-01-25T07:11:59;102460.81;;;2.39;100.00
37238;BME280;23129;49.662;8.448;2023-01-25T07:14:29;102463.47;;;2.41;100.00
37238;BME280;23129;49.662;8.448;2023-01-25T07:16:59;102463.47;;;2.41;100.00
37238;BME280;23129;49.662;8.448;2023-01-25T07:19:30;102460.03;;;2.42;100.00
37238;BME280;23129;49.662;8.448;2023-01-25T07:21:58;102460.03;;;2.42;100.00
37238;BME280;23129;49.662;8.448;2023-01-25T07:24:27;102447.94;;;2.41;100.00
37238;BME280;23129;49.662;8.448;2023-01-25T07:26:56;102457.41;;;2.40;100.00
37238;BME280;23129;49.662;8.448;2023-01-25T07:29:24;102456.53;;;2.40;100.00
37238;BME280;23129;49.662;8.448;2023-01-25T07:31:54;102454.06;;;2.43;100.00
37238;BME280;23129;49.662;8.448;2023-01-25T07:34:22;102460.94;;;2.42;100.00
37238;BME280;23129;49.662;8.448;2023-01-25T07:36:51;102464.34;;;2.41;100.00
37238;BME280;23129;49.662;8.448;2023-01-25T07:39:19;102468.66;;;2.41;100.00
37238;BME280;23129;49.662;8.448;2023-01-25T07:41:48;102465.22;;;2.42;100.00
37238;BME280;23129;49.662;8.448;2023-01-25T07:44:19;102467.81;;;2.42;100.00
37238;BME280;23129;49.662;8.448;2023-01-25T07:46:51;102461.72;;;2.40;100.00
37238;BME280;23129;49.662;8.448;2023-01-25T07:49:21;102462.59;;;2.40;100.00
37238;BME280;23129;49.662;8.448;2023-01-25T07:51:50;102453.09;;;2.41;100.00
37238;BME280;23129;49.662;8.448;2023-01-25T07:54:19;102465.22;;;2.42;100.00
37238;BME280;23129;49.662;8.448;2023-01-25T07:56:48;102458.41;;;2.44;100.00
37238;BME280;23129;49.662;8.448;2023-01-25T07:59:17;102455.78;;;2.42;100.00
37238;BME280;23129;49.662;8.448;2023-01-25T08:01:45;102461.72;;;2.40;100.00
37238;BME280;23129;49.662;8.448;2023-01-25T08:04:14;102460.88;;;2.41;100.00
37238;BME280;23129;49.662;8.448;2023-01-25T08:06:43;102465.22;;;2.42;100.00
37238;BME280;23129;49.662;8.448;2023-01-25T08:09:15;102465.22;;;2.42;100.00
37238;BME280;23129;49.662;8.448;2023-01-25T08:11:48;102455.69;;;2.41;100.00
37238;BME280;23129;49.662;8.448;2023-01-25T08:14:18;102462.59;;;2.40;100.00
37238;BME280;23129;49.662;8.448;2023-01-25T08:16:47;102458.28;;;2.41;100.00
37238;BME280;23129;49.662;8.448;2023-01-25T08:19:16;102450.50;;;2.41;100.00
37238;BME280;23129;49.662;8.448;2023-01-25T08:21:47;102460.03;;;2.42;100.00
37238;BME280;23129;49.662;8.448;2023-01-25T08:24:17;102458.28;;;2.41;100.00
37238;BME280;23129;49.662;8.448;2023-01-25T08:26:47;102449.69;;;2.42;100.00
37238;BME280;23129;49.662;8.448;2023-01-25T08:29:15;102458.28;;;2.41;100.00
37238;BME280;23129;49.662;8.448;2023-01-25T08:31:44;102460.03;;;2.42;100.00
37238;BME280;23129;49.662;8.448;2023-01-25T08:34:13;102464.41;;;2.43;100.00
37238;BME280;23129;49.662;8.448;2023-01-25T08:36:42;102456.66;;;2.43;100.00
37238;BME280;23129;49.662;8.448;2023-01-25T08:39:12;102442.84;;;2.44;100.00
37238;BME280;23129;49.662;8.448;2023-01-25T08:41:41;102451.59;;;2.46;100.00
37238;BME280;23129;49.662;8.448;2023-01-25T08:44:11;102450.81;;;2.48;100.00
37238;BME280;23129;49.662;8.448;2023-01-25T08:46:40;102437.91;;;2.50;100.00
37238;BME280;23129;49.662;8.448;2023-01-25T08:49:09;102438.03;;;2.53;100.00
37238;BME280;23129;49.662;8.448;2023-01-25T08:51:37;102434.59;;;2.54;100.00
37238;BME280;23129;49.662;8.448;2023-01-25T08:54:07;102436.38;;;2.55;100.00
37238;BME280;23129;49.662;8.448;2023-01-25T08:56:39;102430.38;;;2.56;100.00
37238;BME280;23129;49.662;8.448;2023-01-25T08:59:10;102429.53;;;2.57;100.00
37238;BME280;23129;49.662;8.448;2023-01-25T09:01:39;102435.66;;;2.59;100.00
37238;BME280;23129;49.662;8.448;2023-01-25T09:04:07;102436.59;;;2.61;100.00
37238;BME280;23129;49.662;8.448;2023-01-25T09:06:36;102428.00;;;2.62;100.00
37238;BME280;23129;49.662;8.448;2023-01-25T09:09:05;102429.78;;;2.63;100.00
37238;BME280;23129;49.662;8.448;2023-01-25T09:11:35;102421.88;;;2.60;100.00
37238;BME280;23129;49.662;8.448;2023-01-25T09:14:05;102421.06;;;2.61;100.00
37238;BME280;23129;49.662;8.448;2023-01-25T09:16:34;102426.25;;;2.61;100.00
37238;BME280;23129;49.662;8.448;2023-01-25T09:19:04;102423.66;;;2.61;100.00
37238;BME280;23129;49.662;8.448;2023-01-25T09:21:33;102429.78;;;2.63;100.00
37238;BME280;23129;49.662;8.448;2023-01-25T09:24:03;102429.78;;;2.63;100.00
37238;BME280;23129;49.662;8.448;2023-01-25T09:26:36;102422.81;;;2.62;100.00
37238;BME280;23129;49.662;8.448;2023-01-25T09:29:06;102431.53;;;2.64;100.00
37238;BME280;23129;49.662;8.448;2023-01-25T09:31:37;102421.19;;;2.64;100.00
37238;BME280;23129;49.662;8.448;2023-01-25T09:34:30;102431.53;;;2.64;100.00
37238;BME280;23129;49.662;8.448;2023-01-25T09:36:59;102419.41;;;2.63;100.00
37238;BME280;23129;49.662;8.448;2023-01-25T09:39:27;102427.22;;;2.65;100.00
37238;BME280;23129;49.662;8.448;2023-01-25T09:42:19;102422.94;;;2.65;100.00
37238;BME280;23129;49.662;8.448;2023-01-25T09:45:21;102424.72;;;2.66;100.00
37238;BME280;23129;49.662;8.448;2023-01-25T09:47:55;102422.94;;;2.65;100.00
37238;BME280;23129;49.662;8.448;2023-01-25T09:50:39;102423.78;;;2.64;100.00
37238;BME280;23129;49.662;8.448;2023-01-25T09:53:29;102418.47;;;2.61;100.00
37238;BME280;23129;49.662;8.448;2023-01-25T09:56:03;102417.75;;;2.65;100.00
37238;BME280;23129;49.662;8.448;2023-01-25T09:58:41;102415.22;;;2.67;100.00
37238;BME280;23129;49.662;8.448;2023-01-25T10:01:24;102413.50;;;2.67;100.00
37238;BME280;23129;49.662;8.448;2023-01-25T10:04:12;102414.34;;;2.66;100.00
37238;BME280;23129;49.662;8.448;2023-01-25T10:06:43;102409.16;;;2.66;100.00
37238;BME280;23129;49.662;8.448;2023-01-25T10:09:38;102410.06;;;2.67;100.00
37238;BME280;23129;49.662;8.448;2023-01-25T10:12:15;102404.09;;;2.69;100.00
37238;BME280;23129;49.662;8.448;2023-01-25T10:14:47;102407.59;;;2.71;100.00
37238;BME280;23129;49.662;8.448;2023-01-25T10:17:26;102399.03;;;2.72;100.00
37238;BME280;23129;49.662;8.448;2023-01-25T10:20:08;102407.59;;;2.71;100.00
37238;BME280;23129;49.662;8.448;2023-01-25T10:22:47;102406.72;;;2.71;100.00
37238;BME280;23129;49.662;8.448;2023-01-25T10:25:31;102399.91;;;2.73;100.00
37238;BME280;23129;49.662;8.448;2023-01-25T10:28:20;102387.84;;;2.75;100.00
37238;BME280;23129;49.662;8.448;2023-01-25T10:30:57;102397.34;;;2.74;100.00
37238;BME280;23129;49.662;8.448;2023-01-25T10:33:30;102402.53;;;2.74;100.00
37238;BME280;23129;49.662;8.448;2023-01-25T10:36:04;102394.00;;;2.77;100.00
37238;BME280;23129;49.662;8.448;2023-01-25T10:38:38;102382.78;;;2.78;100.00
37238;BME280;23129;49.662;8.448;2023-01-25T10:41:10;102381.00;;;2.76;100.00
37238;BME280;23129;49.662;8.448;2023-01-25T10:43:41;102364.53;;;2.75;100.00
37238;BME280;23129;49.662;8.448;2023-01-25T10:46:18;102361.06;;;2.74;100.00
37238;BME280;23129;49.662;8.448;2023-01-25T10:48:50;102360.31;;;2.77;100.00
37238;BME280;23129;49.662;8.448;2023-01-25T10:51:30;102349.06;;;2.77;100.00
37238;BME280;23129;49.662;8.448;2023-01-25T10:54:02;102351.69;;;2.78;100.00
37238;BME280;23129;49.662;8.448;2023-01-25T10:56:32;102348.22;;;2.78;100.00
37238;BME280;23129;49.662;8.448;2023-01-25T10:59:16;102346.47;;;2.77;100.00
37238;BME280;23129;49.662;8.448;2023-01-25T11:01:46;102345.63;;;2.78;100.00
37238;BME280;23129;49.662;8.448;2023-01-25T11:04:31;102336.16;;;2.78;100.00
37238;BME280;23129;49.662;8.448;2023-01-25T11:07:01;102334.50;;;2.80;100.00
37238;BME280;23129;49.662;8.448;2023-01-25T11:09:35;102335.38;;;2.81;100.00
37238;BME280;23129;49.662;8.448;2023-01-25T11:12:15;102327.66;;;2.82;100.00
37238;BME280;23129;49.662;8.448;2023-01-25T11:14:46;102315.66;;;2.84;100.00
37238;BME280;23129;49.662;8.448;2023-01-25T11:17:26;102313.19;;;2.89;100.00
37238;BME280;23129;49.662;8.448;2023-01-25T11:20:16;102304.59;;;2.90;100.00
37238;BME280;23129;49.662;8.448;2023-01-25T11:22:50;102303.88;;;2.94;100.00
37238;BME280;23129;49.662;8.448;2023-01-25T11:25:29;102294.41;;;2.96;100.00
37238;BME280;23129;49.662;8.448;2023-01-25T11:28:18;102290.19;;;2.98;100.00
37238;BME280;23129;49.662;8.448;2023-01-25T11:30:47;102292.88;;;3.01;100.00
37238;BME280;23129;49.662;8.448;2023-01-25T11:33:19;102287.69;;;3.01;100.00
37238;BME280;23129;49.662;8.448;2023-01-25T11:36:12;102277.41;;;3.04;100.00
37238;BME280;23129;49.662;8.448;2023-01-25T11:38:56;102276.63;;;3.05;100.00
37238;BME280;23129;49.662;8.448;2023-01-25T11:41:35;102274.03;;;3.05;100.00
37238;BME280;23129;49.662;8.448;2023-01-25T11:44:34;102271.34;;;3.04;100.00
37238;BME280;23129;49.662;8.448;2023-01-25T11:47:16;102256.66;;;3.03;100.00
37238;BME280;23129;49.662;8.448;2023-01-25T11:50:01;102263.56;;;3.02;100.00
37238;BME280;23129;49.662;8.448;2023-01-25T11:52:48;102260.06;;;3.02;100.00
37238;BME280;23129;49.662;8.448;2023-01-25T11:55:27;102249.75;;;3.03;100.00
37238;BME280;23129;49.662;8.448;2023-01-25T11:58:15;102252.28;;;3.02;100.00
37238;BME280;23129;49.662;8.448;2023-01-25T12:01:02;102247.06;;;3.00;100.00
37238;BME280;23129;49.662;8.448;2023-01-25T12:04:14;102243.59;;;3.00;100.00
37238;BME280;23129;49.662;8.448;2023-01-25T12:06:57;102235.84;;;3.01;100.00
37238;BME280;23129;49.662;8.448;2023-01-25T12:09:45;102227.25;;;3.02;100.00
37238;BME280;23129;49.662;8.448;2023-01-25T12:12:30;102219.47;;;3.02;100.00
37238;BME280;23129;49.662;8.448;2023-01-25T12:18:23;102214.06;;;2.96;100.00
37238;BME280;23129;49.662;8.448;2023-01-25T12:21:04;102204.56;;;2.95;100.00
37238;BME280;23129;49.662;8.448;2023-01-25T12:23:50;102195.03;;;2.94;100.00
37238;BME280;23129;49.662;8.448;2023-01-25T12:26:26;102185.53;;;2.94;100.00
37238;BME280;23129;49.662;8.448;2023-01-25T12:29:02;102174.38;;;2.97;100.00
37238;BME280;23129;49.662;8.448;2023-01-25T12:31:42;102168.34;;;2.98;100.00
37238;BME280;23129;49.662;8.448;2023-01-25T12:34:17;102166.69;;;3.00;100.00
37238;BME280;23129;49.662;8.448;2023-01-25T12:36:48;102157.22;;;3.01;100.00
37238;BME280;23129;49.662;8.448;2023-01-25T12:39:21;102159.91;;;3.04;100.00
37238;BME280;23129;49.662;8.448;2023-01-25T12:41:57;102150.38;;;3.03;100.00
37238;BME280;23129;49.662;8.448;2023-01-25T12:44:32;102157.31;;;3.04;100.00
37238;BME280;23129;49.662;8.448;2023-01-25T12:47:08;102151.25;;;3.03;100.00
37238;BME280;23129;49.662;8.448;2023-01-25T12:49:46;102139.13;;;3.02;100.00
37238;BME280;23129;49.662;8.448;2023-01-25T12:52:25;102136.56;;;3.04;100.00
37238;BME280;23129;49.662;8.448;2023-01-25T12:54:58;102129.66;;;3.04;100.00
37238;BME280;23129;49.662;8.448;2023-01-25T12:57:37;102121.94;;;3.06;100.00
37238;BME280;23129;49.662;8.448;2023-01-25T13:00:20;102128.00;;;3.06;100.00
37238;BME280;23129;49.662;8.448;2023-01-25T13:03:19;102121.94;;;3.06;100.00
37238;BME280;23129;49.662;8.448;2023-01-25T13:05:52;102118.56;;;3.08;100.00
37238;BME280;23129;49.662;8.448;2023-01-25T13:08:36;102118.50;;;3.07;100.00
37238;BME280;23129;49.662;8.448;2023-01-25T13:11:14;102114.19;;;3.07;100.00
37238;BME280;23129;49.662;8.448;2023-01-25T13:13:47;102121.09;;;3.07;100.00
37238;BME280;23129;49.662;8.448;2023-01-25T13:16:40;102118.47;;;3.05;100.00
37238;BME280;23129;49.662;8.448;2023-01-25T13:19:20;102122.72;;;3.03;100.00
37238;BME280;23129;49.662;8.448;2023-01-25T13:21:49;102119.19;;;3.01;100.00
37238;BME280;23129;49.662;8.448;2023-01-25T13:24:24;102118.25;;;2.99;100.00
37238;BME280;23129;49.662;8.448;2023-01-25T13:27:03;102116.50;;;2.96;100.00